Time;durP1;ratioP1;P1;durP2;ratioP2;P2;SDS_P1;SDS_P2;PMS_P1;PMS_P2;Temp;Humidity;BMP_temperature;BMP_pressure;BME280_temperature;BME280_humidity;BME280_pressure;Samples;Min_cycle;Max_cycle;Signal;HPM_P1;HPM_P2
2022/06/01 00:00:09;;;;;;;;;20.50;20.50;;;;;12.74;70.19;101329.97;5032196;28;10504;-65
2022/06/01 00:02:37;;;;;;;;;22.25;21.00;;;;;12.74;70.56;101329.16;5031811;28;10610;-65
2022/06/01 00:05:05;;;;;;;;;22.50;21.50;;;;;12.70;70.22;101326.00;5032297;28;10586;-65
2022/06/01 00:07:31;;;;;;;;;27.75;26.00;;;;;12.67;70.47;101330.97;5031249;28;11463;-65
2022/06/01 00:09:58;;;;;;;;;21.00;18.00;;;;;12.67;70.79;101336.34;5032110;28;10632;-66
2022/06/01 00:12:25;;;;;;;;;20.25;20.25;;;;;12.67;70.63;101331.78;5022192;28;10408;-65
2022/06/01 00:14:51;;;;;;;;;20.00;20.00;;;;;12.65;70.86;101333.88;5031774;28;10466;-65
2022/06/01 00:17:20;;;;;;;;;20.75;20.25;;;;;12.64;70.95;101329.50;5031463;28;10562;-65
2022/06/01 00:19:47;;;;;;;;;18.00;18.00;;;;;12.58;70.97;101327.56;5031509;28;10420;-64
2022/06/01 00:22:14;;;;;;;;;16.00;13.50;;;;;12.61;71.33;101332.59;5031523;28;10439;-63
2022/06/01 00:24:42;;;;;;;;;15.75;15.75;;;;;12.62;71.32;101324.28;5031404;28;10405;-65
2022/06/01 00:27:10;;;;;;;;;21.25;20.75;;;;;12.61;71.34;101322.63;5031469;28;10894;-65
2022/06/01 00:29:37;;;;;;;;;15.25;14.75;;;;;12.60;71.02;101314.72;5024261;28;10525;-65
2022/06/01 00:32:05;;;;;;;;;16.75;16.75;;;;;12.60;71.13;101320.13;5031023;28;11138;-65
2022/06/01 00:34:32;;;;;;;;;12.00;11.50;;;;;12.60;71.37;101306.63;5027257;28;10516;-64
2022/06/01 00:36:59;;;;;;;;;17.25;15.50;;;;;12.59;71.39;101313.03;5030297;28;10229;-65
2022/06/01 00:39:26;;;;;;;;;19.50;16.00;;;;;12.61;71.30;101316.38;5031210;28;10394;-64
2022/06/01 00:41:52;;;;;;;;;12.50;10.75;;;;;12.62;71.49;101318.03;5030361;28;10446;-65
2022/06/01 00:44:19;;;;;;;;;14.75;14.25;;;;;12.61;71.06;101319.09;5030204;28;10317;-64
2022/06/01 00:46:45;;;;;;;;;11.75;11.75;;;;;12.57;71.18;101317.81;5030702;28;10580;-65
2022/06/01 00:49:21;;;;;;;;;14.00;14.00;;;;;12.57;70.77;101324.03;5030834;28;10252;-65
2022/06/01 00:51:49;;;;;;;;;14.25;12.00;;;;;12.57;71.24;101315.09;5030675;28;10343;-65
2022/06/01 00:54:16;;;;;;;;;17.75;14.00;;;;;12.56;70.95;101311.56;5031099;28;11119;-64
2022/06/01 00:56:53;;;;;;;;;13.00;9.50;;;;;12.57;71.13;101309.69;5030699;28;10495;-64
2022/06/01 00:59:24;;;;;;;;;17.25;16.00;;;;;12.55;70.84;101309.03;5026955;28;10242;-64
2022/06/01 01:01:56;;;;;;;;;12.50;11.00;;;;;12.53;71.28;101311.13;5030658;28;10375;-65
2022/06/01 01:04:23;;;;;;;;;11.00;10.75;;;;;12.52;70.95;101309.47;5030604;28;10238;-65
2022/06/01 01:06:50;;;;;;;;;11.50;10.00;;;;;12.51;71.40;101308.59;5030546;28;10301;-64
2022/06/01 01:09:16;;;;;;;;;12.25;10.25;;;;;12.52;70.94;101307.59;5026801;28;10184;-65
2022/06/01 01:11:59;;;;;;;;;11.75;11.75;;;;;12.51;71.25;101307.78;5030522;28;10211;-65
2022/06/01 01:14:30;;;;;;;;;13.50;12.50;;;;;12.49;71.13;101307.97;5030429;28;10268;-65
2022/06/01 01:16:59;;;;;;;;;9.75;9.50;;;;;12.49;71.11;101313.38;5029113;28;10227;-64
2022/06/01 01:19:39;;;;;;;;;14.25;12.50;;;;;12.47;71.12;101311.88;5022450;28;10279;-65
2022/06/01 01:22:33;;;;;;;;;10.00;9.50;;;;;12.44;70.93;101318.53;5030223;28;10396;-65
2022/06/01 01:25:29;;;;;;;;;9.50;9.50;;;;;12.43;71.12;101313.31;5027816;28;10261;-64
2022/06/01 01:27:59;;;;;;;;;11.50;9.50;;;;;12.40;70.78;101311.00;5030025;28;10239;-67
2022/06/01 01:30:37;;;;;;;;;9.00;9.00;;;;;12.38;71.37;101308.50;5029818;28;10185;-64
2022/06/01 01:33:18;;;;;;;;;7.75;7.75;;;;;12.36;71.08;101302.47;5030305;28;10095;-63
2022/06/01 01:35:48;;;;;;;;;12.50;10.00;;;;;12.32;70.97;101301.19;5023665;28;10103;-64
2022/06/01 01:38:25;;;;;;;;;10.50;10.00;;;;;12.28;70.79;101300.75;5029899;28;10410;-64
2022/06/01 01:41:24;;;;;;;;;10.50;10.00;;;;;12.24;70.63;101307.56;5022416;28;10319;-64
2022/06/01 01:44:07;;;;;;;;;8.25;8.25;;;;;12.18;71.04;101300.22;5029704;28;10165;-64
2022/06/01 01:46:33;;;;;;;;;11.75;11.75;;;;;12.20;71.11;101308.16;5029871;28;10156;-65
2022/06/01 01:49:02;;;;;;;;;12.25;10.25;;;;;12.20;71.32;101305.44;5029497;28;10357;-62
2022/06/01 01:51:30;;;;;;;;;11.50;9.75;;;;;12.18;70.98;101300.22;5030260;28;10239;-64
2022/06/01 01:53:59;;;;;;;;;12.50;11.00;;;;;12.16;71.01;101298.75;5030295;28;10373;-64
2022/06/01 01:56:54;;;;;;;;;9.75;9.25;;;;;12.15;70.84;101300.59;5030300;28;10469;-61
2022/06/01 01:59:43;;;;;;;;;11.50;8.25;;;;;12.13;71.25;101302.66;5029959;28;10300;-64
2022/06/01 02:02:20;;;;;;;;;13.75;11.00;;;;;12.11;71.26;101302.00;5025071;28;10311;-62
2022/06/01 02:08:01;;;;;;;;;11.25;10.50;;;;;12.05;70.75;101300.94;5029606;28;10236;-65
2022/06/01 02:13:16;;;;;;;;;12.75;12.50;;;;;12.02;70.92;101297.78;5020796;28;10486;-65
2022/06/01 02:15:47;;;;;;;;;16.50;15.00;;;;;12.02;71.08;101295.09;5028238;28;10526;-63
2022/06/01 02:18:19;;;;;;;;;18.25;17.25;;;;;12.00;71.41;101292.59;5025273;28;10577;-65
2022/06/01 02:20:54;;;;;;;;;14.75;14.00;;;;;11.99;71.18;101288.22;5029487;28;10609;-65
2022/06/01 02:23:21;;;;;;;;;17.25;17.00;;;;;11.98;71.17;101289.22;5029695;28;10560;-65
2022/06/01 02:25:53;;;;;;;;;24.00;21.25;;;;;11.97;71.65;101289.44;5029647;28;11090;-65
2022/06/01 02:28:19;;;;;;;;;20.50;19.50;;;;;11.95;71.56;101286.94;5029353;28;10638;-63
2022/06/01 02:30:47;;;;;;;;;20.00;18.75;;;;;11.94;71.40;101287.94;5027627;28;10416;-65
2022/06/01 02:33:20;;;;;;;;;18.75;18.25;;;;;11.95;71.99;101292.34;5029612;28;10618;-64
2022/06/01 02:35:50;;;;;;;;;14.75;14.75;;;;;11.92;71.50;101284.63;5029511;28;10527;-65
2022/06/01 02:38:25;;;;;;;;;17.75;14.75;;;;;11.90;71.75;101288.53;5029362;28;10476;-64
2022/06/01 02:40:52;;;;;;;;;13.50;9.50;;;;;11.86;71.70;101286.22;5029480;28;10700;-64
2022/06/01 02:43:19;;;;;;;;;11.50;11.50;;;;;11.83;71.68;101283.09;5029337;28;10550;-65
2022/06/01 02:45:45;;;;;;;;;18.50;16.50;;;;;11.81;71.59;101287.78;5029178;28;10458;-63
2022/06/01 02:48:12;;;;;;;;;14.25;12.00;;;;;11.78;71.96;101280.91;5028508;28;10456;-65
2022/06/01 02:50:38;;;;;;;;;7.75;7.75;;;;;11.75;72.01;101281.31;5027712;28;10531;-65
2022/06/01 02:53:06;;;;;;;;;14.00;14.00;;;;;11.72;71.84;101280.84;5029042;28;10454;-65
2022/06/01 02:55:33;;;;;;;;;11.00;11.00;;;;;11.70;71.49;101278.31;5029494;28;10502;-64
2022/06/01 02:58:01;;;;;;;;;12.25;10.50;;;;;11.70;71.51;101272.09;5028814;28;10468;-65
2022/06/01 03:00:37;;;;;;;;;13.50;12.00;;;;;11.69;71.62;101273.97;5030488;28;10992;-65
2022/06/01 03:03:06;;;;;;;;;11.00;10.25;;;;;11.69;71.87;101273.13;5032717;28;10315;-65
2022/06/01 03:05:36;;;;;;;;;13.75;8.75;;;;;11.69;72.12;101279.38;5026636;28;10464;-65
2022/06/01 03:08:03;;;;;;;;;7.00;7.00;;;;;11.70;71.58;101283.72;5032541;28;10292;-65
2022/06/01 03:10:30;;;;;;;;;8.25;7.25;;;;;11.69;71.62;101287.44;5033087;28;10284;-64
2022/06/01 03:12:57;;;;;;;;;8.00;8.00;;;;;11.68;71.33;101283.09;5032472;28;10384;-65
2022/06/01 03:15:25;;;;;;;;;11.75;11.25;;;;;11.68;71.66;101280.41;5033341;28;10993;-65
2022/06/01 03:17:53;;;;;;;;;9.25;9.25;;;;;11.64;71.59;101279.09;5032533;28;10314;-65
2022/06/01 03:20:22;;;;;;;;;10.25;8.25;;;;;11.63;71.64;101285.53;5032698;28;10285;-65
2022/06/01 03:22:56;;;;;;;;;7.50;7.25;;;;;11.58;71.72;101278.00;5032732;28;10304;-63
2022/06/01 03:25:23;;;;;;;;;6.50;6.50;;;;;11.60;71.44;101278.66;5032791;28;10229;-66
2022/06/01 03:27:53;;;;;;;;;7.25;7.25;;;;;11.61;71.44;101274.09;5032736;28;10145;-65
2022/06/01 03:30:21;;;;;;;;;11.00;7.25;;;;;11.59;72.14;101276.97;5032469;28;10228;-64
2022/06/01 03:32:47;;;;;;;;;8.25;6.50;;;;;11.59;71.90;101278.84;5032919;28;10157;-66
2022/06/01 03:35:17;;;;;;;;;10.25;6.00;;;;;11.59;71.45;101276.16;5032168;28;10246;-65
2022/06/01 03:37:43;;;;;;;;;7.25;7.25;;;;;11.57;71.61;101281.72;5029237;28;10337;-65
2022/06/01 03:40:11;;;;;;;;;5.75;5.25;;;;;11.56;71.58;101274.66;5029030;28;10345;-65
2022/06/01 03:42:37;;;;;;;;;5.00;5.00;;;;;11.57;71.72;101270.09;5032580;28;10300;-65
2022/06/01 03:47:51;;;;;;;;;6.00;5.75;;;;;11.55;71.05;101275.69;5032058;28;10233;-65
2022/06/01 03:50:18;;;;;;;;;4.00;4.00;;;;;11.56;71.60;101290.00;5031862;28;10342;-65
2022/06/01 03:52:45;;;;;;;;;5.00;4.00;;;;;11.55;71.57;101283.78;5032912;28;10231;-65
2022/06/01 03:55:14;;;;;;;;;8.50;6.25;;;;;11.52;71.29;101289.53;5030271;28;10292;-64
2022/06/01 03:57:42;;;;;;;;;3.75;3.75;;;;;11.52;71.33;101288.72;5023694;28;10228;-65
2022/06/01 04:00:12;;;;;;;;;5.00;5.00;;;;;11.53;71.72;101293.06;5030893;28;10195;-65
2022/06/01 04:02:40;;;;;;;;;5.75;5.00;;;;;11.52;71.77;101291.41;5031932;28;10177;-65
2022/06/01 04:05:11;;;;;;;;;6.00;5.75;;;;;11.51;71.85;101287.06;5031827;28;10222;-65
2022/06/01 04:07:38;;;;;;;;;5.50;5.50;;;;;11.51;71.46;101289.75;5031587;28;10075;-65
2022/06/01 04:10:05;;;;;;;;;8.75;6.75;;;;;11.50;71.83;101293.44;5030624;28;10961;-67
2022/06/01 04:12:32;;;;;;;;;6.00;6.00;;;;;11.48;71.57;101301.72;5030553;28;10281;-65
2022/06/01 04:14:58;;;;;;;;;2.25;2.25;;;;;11.49;72.11;101307.97;5030237;28;10178;-65
2022/06/01 04:17:25;;;;;;;;;6.00;6.00;;;;;11.49;72.12;101299.88;5031484;28;10234;-65
2022/06/01 04:19:51;;;;;;;;;3.00;3.00;;;;;11.52;71.47;101291.41;5023893;28;10104;-65
2022/06/01 04:22:19;;;;;;;;;2.50;2.00;;;;;11.52;71.75;101291.41;5031746;28;10136;-66
2022/06/01 04:24:46;;;;;;;;;3.50;2.75;;;;;11.52;71.75;101288.72;5030400;28;9881;-66
2022/06/01 04:27:13;;;;;;;;;3.00;3.00;;;;;11.50;71.73;101288.88;5031222;28;10228;-66
2022/06/01 04:29:39;;;;;;;;;4.00;2.00;;;;;11.51;71.66;101289.75;5031065;28;10174;-66
2022/06/01 04:32:13;;;;;;;;;3.00;3.00;;;;;11.51;71.85;101287.88;5031275;28;10108;-66
2022/06/01 04:34:39;;;;;;;;;1.25;1.25;;;;;11.54;71.38;101282.09;5030751;28;10190;-66
2022/06/01 04:37:06;;;;;;;;;3.00;2.00;;;;;11.53;71.28;101280.44;5027222;28;10081;-65
2022/06/01 04:39:33;;;;;;;;;2.25;2.25;;;;;11.53;71.61;101284.97;5031511;28;10198;-65
2022/06/01 04:41:59;;;;;;;;;1.00;1.00;;;;;11.55;71.24;101283.78;5031443;28;10227;-66
2022/06/01 04:44:26;;;;;;;;;2.00;1.25;;;;;11.56;71.52;101284.63;5030992;28;10760;-66
2022/06/01 04:46:52;;;;;;;;;2.00;2.00;;;;;11.56;71.58;101292.69;5030869;28;9988;-66
2022/06/01 04:49:19;;;;;;;;;1.25;1.25;;;;;11.56;71.50;101292.69;5031074;28;10037;-66
2022/06/01 04:51:46;;;;;;;;;1.75;1.75;;;;;11.56;71.33;101282.75;5029798;28;10830;-67
2022/06/01 04:54:12;;;;;;;;;1.00;1.00;;;;;11.57;71.71;101297.91;5031213;28;10076;-67
2022/06/01 04:56:38;;;;;;;;;2.00;2.00;;;;;11.59;71.76;101295.03;5029674;28;9993;-66
2022/06/01 04:59:05;;;;;;;;;2.00;2.00;;;;;11.60;71.43;101292.13;5030854;28;10791;-67
2022/06/01 05:01:31;;;;;;;;;1.00;1.00;;;;;11.64;71.87;101292.59;5031038;28;9887;-66
2022/06/01 05:03:58;;;;;;;;;0.00;0.00;;;;;11.71;71.66;101298.03;5030550;28;10750;-66
2022/06/01 05:06:25;;;;;;;;;1.75;1.00;;;;;11.76;71.73;101295.63;5031173;28;9927;-66
2022/06/01 05:08:51;;;;;;;;;1.75;1.75;;;;;11.79;71.78;101301.47;5030099;28;9809;-66
2022/06/01 05:11:19;;;;;;;;;2.00;1.00;;;;;11.82;71.24;101301.06;5024011;28;9902;-67
2022/06/01 05:13:47;;;;;;;;;4.50;2.00;;;;;11.82;71.77;101300.25;5030450;28;10141;-66
2022/06/01 05:16:13;;;;;;;;;2.75;2.75;;;;;11.82;71.84;101303.78;5030718;28;10010;-67
2022/06/01 05:18:40;;;;;;;;;2.75;2.75;;;;;11.81;71.58;101299.41;5030523;28;9937;-67
2022/06/01 05:21:07;;;;;;;;;0.50;0.50;;;;;11.81;71.93;101294.00;5030504;28;10209;-64
2022/06/01 05:23:33;;;;;;;;;0.50;0.50;;;;;11.85;71.77;101308.81;5029962;28;10031;-64
2022/06/01 05:26:00;;;;;;;;;2.00;2.00;;;;;11.92;72.21;101302.69;5030344;28;9930;-63
2022/06/01 05:28:30;;;;;;;;;1.00;1.00;;;;;12.00;71.84;101310.66;5030020;28;10079;-65
2022/06/01 05:30:58;;;;;;;;;2.25;2.25;;;;;12.02;71.70;101305.88;5030738;28;9940;-64
2022/06/01 05:33:24;;;;;;;;;2.00;2.00;;;;;12.04;71.31;101317.34;5030426;28;10622;-64
2022/06/01 05:35:51;;;;;;;;;2.00;2.00;;;;;12.09;71.51;101318.41;5029840;28;9857;-62
2022/06/01 05:38:18;;;;;;;;;3.00;2.25;;;;;12.10;71.55;101321.94;5028379;28;9919;-64
2022/06/01 05:40:45;;;;;;;;;1.75;1.75;;;;;12.15;71.60;101326.75;5029962;28;9992;-62
2022/06/01 05:43:13;;;;;;;;;2.00;2.00;;;;;12.22;71.46;101323.09;5030150;28;9762;-64
2022/06/01 05:45:40;;;;;;;;;2.00;2.00;;;;;12.32;71.19;101323.63;5030295;28;9780;-64
2022/06/01 05:48:09;;;;;;;;;3.25;3.25;;;;;12.44;70.97;101320.41;5029685;28;9869;-65
2022/06/01 05:50:36;;;;;;;;;2.00;2.00;;;;;12.56;70.59;101319.66;5030241;28;9839;-64
2022/06/01 05:53:02;;;;;;;;;2.00;2.00;;;;;12.69;70.66;101318.94;5029245;28;9740;-64
2022/06/01 05:55:29;;;;;;;;;1.50;1.50;;;;;12.81;70.45;101319.22;5029100;28;9867;-64
2022/06/01 05:57:56;;;;;;;;;4.00;4.00;;;;;12.91;70.02;101322.41;5029958;28;9741;-64
2022/06/01 06:00:23;;;;;;;;;3.50;2.50;;;;;12.95;69.46;101328.25;5029547;28;9820;-65
2022/06/01 06:02:49;;;;;;;;;1.25;1.25;;;;;12.99;69.34;101324.94;5030142;28;10487;-64
2022/06/01 06:08:02;;;;;;;;;2.25;1.50;;;;;13.11;69.12;101327.94;5029859;28;9731;-64
2022/06/01 06:10:28;;;;;;;;;4.00;4.00;;;;;13.16;68.79;101328.16;5030189;28;9667;-65
2022/06/01 06:12:55;;;;;;;;;3.50;3.00;;;;;13.17;69.04;101329.03;5028937;28;9739;-65
2022/06/01 06:15:21;;;;;;;;;3.00;3.00;;;;;13.17;68.79;101337.97;5029770;28;9773;-64
2022/06/01 06:17:53;;;;;;;;;2.00;2.00;;;;;13.18;69.00;101336.94;5029999;28;9789;-65
2022/06/01 06:20:20;;;;;;;;;3.25;2.25;;;;;13.19;69.13;101335.88;5030022;28;9590;-63
2022/06/01 06:22:47;;;;;;;;;5.00;5.00;;;;;13.20;68.98;101342.13;5030156;28;9668;-67
2022/06/01 06:25:13;;;;;;;;;4.50;4.50;;;;;13.19;69.18;101345.88;5029774;28;9847;-64
2022/06/01 06:27:40;;;;;;;;;6.00;5.00;;;;;13.15;69.24;101350.00;5029261;28;9766;-65
2022/06/01 06:30:07;;;;;;;;;6.00;6.00;;;;;13.12;69.31;101345.81;5029859;28;9747;-69
2022/06/01 06:32:34;;;;;;;;;6.25;4.00;;;;;13.14;69.71;101343.75;5029824;28;9906;-64
2022/06/01 06:35:01;;;;;;;;;3.50;2.50;;;;;13.21;69.78;101346.50;5029059;28;9936;-65
2022/06/01 06:37:27;;;;;;;;;4.25;4.25;;;;;13.27;69.65;101343.03;5034303;28;10403;-64
2022/06/01 06:39:54;;;;;;;;;4.50;3.75;;;;;13.30;69.35;101348.88;5033043;28;9787;-65
2022/06/01 06:42:20;;;;;;;;;3.25;3.25;;;;;13.35;69.26;101345.56;5033625;28;9779;-64
2022/06/01 06:44:47;;;;;;;;;4.00;4.00;;;;;13.40;69.40;101350.38;5033358;28;9625;-65
2022/06/01 06:47:13;;;;;;;;;2.00;2.00;;;;;13.46;69.30;101355.00;5033836;28;9596;-65
2022/06/01 06:49:40;;;;;;;;;2.25;2.25;;;;;13.48;69.15;101347.50;5033540;28;9593;-65
2022/06/01 06:52:07;;;;;;;;;3.00;3.00;;;;;13.54;69.35;101346.72;5033644;28;9686;-66
2022/06/01 06:54:34;;;;;;;;;2.25;2.25;;;;;13.58;69.26;101347.97;5032727;28;9527;-65
2022/06/01 06:57:00;;;;;;;;;6.00;6.00;;;;;13.57;68.66;101351.69;5033407;28;9689;-64
2022/06/01 06:59:27;;;;;;;;;4.00;4.00;;;;;13.53;68.97;101359.41;5033820;28;9823;-64
2022/06/01 07:01:53;;;;;;;;;2.50;2.50;;;;;13.57;68.54;101357.09;5033691;28;9708;-66
2022/06/01 07:04:20;;;;;;;;;3.75;3.75;;;;;13.65;68.50;101361.50;5033392;28;9531;-65
2022/06/01 07:06:47;;;;;;;;;6.00;3.25;;;;;13.68;68.06;101361.13;5033450;28;9511;-65
2022/06/01 07:09:13;;;;;;;;;4.50;3.50;;;;;13.69;67.41;101360.91;5032686;28;10393;-65
2022/06/01 07:11:40;;;;;;;;;3.00;3.00;;;;;13.68;67.51;101363.81;5033296;28;9609;-64
2022/06/01 07:14:06;;;;;;;;;3.00;3.00;;;;;13.64;67.72;101366.09;5033833;28;9589;-65
2022/06/01 07:16:35;;;;;;;;;6.25;5.75;;;;;13.56;67.65;101369.78;5030722;28;9620;-66
2022/06/01 07:19:04;;;;;;;;;5.50;4.25;;;;;13.46;68.14;101363.09;5033160;28;9702;-66
2022/06/01 07:21:31;;;;;;;;;4.00;3.00;;;;;13.40;68.11;101374.72;5033387;28;9905;-65
2022/06/01 07:23:59;;;;;;;;;3.00;2.75;;;;;13.39;68.30;101378.47;5033041;28;9715;-65
2022/06/01 07:26:31;;;;;;;;;4.25;4.25;;;;;13.36;67.97;101374.28;5033111;28;9680;-65
2022/06/01 07:28:58;;;;;;;;;9.50;6.00;;;;;13.30;68.13;101384.03;5033037;28;9825;-65
2022/06/01 07:31:25;;;;;;;;;6.75;6.75;;;;;13.23;68.36;101385.00;5025201;28;9999;-65
2022/06/01 07:33:52;;;;;;;;;4.00;4.00;;;;;13.18;68.29;101385.59;5030875;28;9857;-66
2022/06/01 07:36:19;;;;;;;;;4.00;4.00;;;;;13.16;68.34;101398.44;5032975;28;9691;-65
2022/06/01 07:44:32;;;;;;;;;1.00;1.00;;;;;13.29;67.07;101387.78;5032685;28;9764;-65
2022/06/01 07:46:58;;;;;;;;;2.00;2.00;;;;;13.47;66.90;101379.13;5025079;28;9524;-65
2022/06/01 07:49:45;;;;;;;;;2.00;2.00;;;;;13.62;65.61;101389.81;5032961;28;9675;-65
2022/06/01 07:52:32;;;;;;;;;4.25;3.00;;;;;13.75;65.90;101394.44;5033139;28;9617;-64
2022/06/01 07:54:58;;;;;;;;;1.50;1.50;;;;;13.83;65.34;101384.28;5032858;28;9729;-63
2022/06/01 07:57:25;;;;;;;;;1.00;1.00;;;;;13.90;65.14;101391.59;5032658;28;9541;-64
2022/06/01 07:59:51;;;;;;;;;1.00;1.00;;;;;13.92;64.32;101390.34;5031838;28;9459;-65
2022/06/01 08:02:17;;;;;;;;;0.00;0.00;;;;;13.94;62.26;101395.56;5033103;28;9612;-65
2022/06/01 08:04:44;;;;;;;;;1.75;1.00;;;;;13.91;62.32;101394.09;5032239;28;9558;-64
2022/06/01 08:07:10;;;;;;;;;1.50;1.00;;;;;13.97;62.06;101395.16;5032461;28;9539;-64
2022/06/01 08:09:37;;;;;;;;;0.25;0.25;;;;;14.03;61.86;101397.06;5032619;28;9529;-65
2022/06/01 08:14:49;;;;;;;;;0.00;0.00;;;;;14.04;61.34;101398.72;5030412;28;9571;-65
2022/06/01 08:17:16;;;;;;;;;0.00;0.00;;;;;14.03;60.81;101391.66;5032216;28;9397;-65
2022/06/01 08:19:45;;;;;;;;;1.00;1.00;;;;;14.07;60.56;101395.59;5031168;28;9536;-64
2022/06/01 08:22:12;;;;;;;;;1.00;1.00;;;;;14.09;59.76;101388.09;5032122;28;9397;-64
2022/06/01 08:24:38;;;;;;;;;1.00;1.00;;;;;14.09;59.64;101397.06;5032222;28;9467;-64
2022/06/01 08:27:06;;;;;;;;;0.00;0.00;;;;;14.17;59.44;101400.63;5031776;28;9617;-64
2022/06/01 08:29:32;;;;;;;;;1.00;1.00;;;;;14.18;58.57;101405.84;5032112;28;9490;-64
2022/06/01 08:31:59;;;;;;;;;0.00;0.00;;;;;14.13;56.63;101393.94;5031635;28;9452;-64
2022/06/01 08:34:25;;;;;;;;;0.67;0.00;;;;;14.24;56.72;101391.47;5031112;28;9521;-64
2022/06/01 08:36:52;;;;;;;;;1.00;0.00;;;;;14.30;56.98;101393.38;5031158;28;9400;-65
2022/06/01 08:39:18;;;;;;;;;0.00;0.00;;;;;14.33;57.17;101394.81;5031988;28;9524;-64
2022/06/01 08:41:45;;;;;;;;;1.00;1.00;;;;;14.30;57.77;101400.66;5031963;28;9215;-66
2022/06/01 08:44:22;;;;;;;;;0.00;0.00;;;;;14.27;57.67;101403.78;5031474;28;10078;-65
2022/06/01 08:46:50;;;;;;;;;1.00;1.00;;;;;14.27;57.51;101410.03;5031853;28;9297;-66
2022/06/01 08:49:24;;;;;;;;;0.00;0.00;;;;;14.30;57.20;101406.06;5031259;28;9291;-65
2022/06/01 08:51:52;;;;;;;;;0.33;0.33;;;;;14.33;56.93;101414.63;5031837;28;9437;-65
2022/06/01 08:54:21;;;;;;;;;0.00;0.00;;;;;14.34;55.83;101408.19;5023770;28;10104;-66
2022/06/01 08:56:51;;;;;;;;;0.00;0.00;;;;;14.41;55.45;101415.47;5030949;28;9411;-66
2022/06/01 08:59:53;;;;;;;;;1.33;1.00;;;;;14.50;55.56;101414.25;5026378;28;9316;-66
2022/06/01 09:02:35;;;;;;;;;0.00;0.00;;;;;14.53;56.21;101414.69;4971259;28;10061;-65
2022/06/01 09:05:20;;;;;;;;;0.00;0.00;;;;;14.67;55.91;101412.00;5022476;28;9301;-65
2022/06/01 09:08:06;;;;;;;;;2.00;1.00;;;;;14.84;56.07;101416.81;5025661;28;9298;-65
2022/06/01 09:10:41;;;;;;;;;1.33;1.00;;;;;14.97;55.03;101409.72;5026611;28;9272;-65
2022/06/01 09:13:15;;;;;;;;;1.00;1.00;;;;;15.03;55.36;101415.16;5031140;28;9865;-65
2022/06/01 09:15:47;;;;;;;;;1.00;1.00;;;;;15.06;54.71;101416.59;5031121;28;9896;-65
2022/06/01 09:18:16;;;;;;;;;0.33;0.33;;;;;15.19;54.32;101413.88;5029760;28;9068;-66
2022/06/01 09:23:29;;;;;;;;;1.00;1.00;;;;;15.44;53.82;101416.75;5030718;28;9218;-65
2022/06/01 09:25:58;;;;;;;;;1.00;1.00;;;;;15.41;54.23;101432.63;5030083;28;9134;-65
2022/06/01 09:28:29;;;;;;;;;2.33;2.33;;;;;15.38;54.25;101425.72;5027837;28;9052;-63
2022/06/01 09:31:08;;;;;;;;;1.00;1.00;;;;;15.23;54.33;101425.97;5030551;28;9227;-63
2022/06/01 09:33:37;;;;;;;;;2.00;2.00;;;;;15.29;54.67;101429.72;5029365;28;9170;-67
2022/06/01 09:36:06;;;;;;;;;2.00;2.00;;;;;15.25;54.67;101442.03;5027105;28;9180;-67
2022/06/01 09:38:54;;;;;;;;;5.33;2.00;;;;;15.10;55.02;101434.09;5031234;28;9322;-65
2022/06/01 09:41:24;;;;;;;;;1.33;1.33;;;;;14.95;54.83;101441.59;5031511;28;9217;-67
2022/06/01 09:44:00;;;;;;;;;2.00;2.00;;;;;15.01;55.24;101438.91;5031949;28;9421;-66
2022/06/01 09:46:35;;;;;;;;;1.00;1.00;;;;;15.16;54.92;101435.97;5031137;28;9255;-65
2022/06/01 09:49:08;;;;;;;;;2.00;2.00;;;;;15.30;55.41;101434.91;5029213;28;9055;-64
2022/06/01 09:51:39;;;;;;;;;1.00;1.00;;;;;15.46;54.55;101428.22;5031692;28;9181;-65
2022/06/01 09:54:24;;;;;;;;;2.67;2.67;;;;;15.50;53.93;101431.34;5031394;28;9074;-66
2022/06/01 09:56:51;;;;;;;;;1.67;1.67;;;;;15.36;53.59;101438.69;5030074;28;9168;-65
2022/06/01 10:08:25;;;;;;;;;0.67;0.67;;;;;14.89;53.38;101442.44;5031469;28;9363;-64
2022/06/01 10:11:09;;;;;;;;;3.33;1.00;;;;;15.02;52.84;101428.88;5029049;28;9958;-64
2022/06/01 10:13:38;;;;;;;;;2.00;2.00;;;;;15.05;52.81;101436.59;5031621;28;9142;-64
2022/06/01 10:16:31;;;;;;;;;1.33;1.00;;;;;15.12;53.20;101442.88;5031394;28;9160;-65
2022/06/01 10:19:01;;;;;;;;;1.00;1.00;;;;;15.27;52.56;101445.34;5031220;28;9164;-65
2022/06/01 10:21:38;;;;;;;;;0.00;0.00;;;;;15.53;52.89;101437.16;5031229;28;9328;-65
2022/06/01 10:24:17;;;;;;;;;0.33;0.33;;;;;15.72;53.11;101440.09;5030330;28;9162;-66
2022/06/01 10:26:51;;;;;;;;;3.67;3.67;;;;;15.58;53.52;101452.81;5030398;28;9013;-64
2022/06/01 10:29:23;;;;;;;;;1.00;1.00;;;;;15.53;54.32;101444.47;5030306;28;9254;-65
2022/06/01 10:31:55;;;;;;;;;3.67;3.67;;;;;15.45;54.80;101456.38;5031158;28;9086;-65
2022/06/01 10:34:34;;;;;;;;;1.00;1.00;;;;;15.45;54.55;101466.41;5030181;28;9320;-65
2022/06/01 10:37:15;;;;;;;;;2.67;1.67;;;;;15.52;52.92;101461.81;5031077;28;9052;-65
2022/06/01 10:39:49;;;;;;;;;1.33;1.33;;;;;15.47;52.63;101469.72;5030580;28;9910;-64
2022/06/01 10:45:22;;;;;;;;;0.00;0.00;;;;;15.53;53.37;101458.88;5029750;28;9040;-65
2022/06/01 10:47:54;;;;;;;;;2.00;2.00;;;;;15.52;53.63;101457.22;5028546;28;9173;-65
2022/06/01 10:50:27;;;;;;;;;2.00;1.00;;;;;15.51;54.04;101470.97;5026619;28;9156;-65
2022/06/01 10:53:07;;;;;;;;;1.33;1.33;;;;;15.39;53.03;101459.09;5030769;28;9099;-64
2022/06/01 10:55:42;;;;;;;;;2.00;2.00;;;;;15.38;53.72;101466.41;5030311;28;9023;-67
2022/06/01 10:58:18;;;;;;;;;6.25;6.25;;;;;15.28;53.56;101468.72;5030011;28;9881;-65
2022/06/01 11:00:50;;;;;;;;;5.33;1.33;;;;;15.18;54.23;101471.84;5030479;28;9377;-65
2022/06/01 11:03:49;;;;;;;;;4.00;2.33;;;;;15.16;53.93;101473.13;5030905;28;9258;-65
2022/06/01 11:06:18;;;;;;;;;2.00;2.00;;;;;15.22;54.72;101478.53;5013681;28;9378;-65
2022/06/01 11:09:09;;;;;;;;;2.00;2.00;;;;;15.30;54.70;101477.47;5027467;28;10077;-65
2022/06/01 11:11:51;;;;;;;;;2.00;2.00;;;;;15.50;54.06;101474.75;5030038;28;9377;-65
2022/06/01 11:14:35;;;;;;;;;1.67;1.67;;;;;15.60;53.81;101480.59;5024400;28;9150;-66
2022/06/01 11:17:31;;;;;;;;;2.33;2.33;;;;;15.59;54.35;101495.19;5021702;28;9103;-66
2022/06/01 11:20:14;;;;;;;;;7.67;4.33;;;;;15.44;54.08;101494.59;5030529;28;9196;-65
2022/06/01 11:22:56;;;;;;;;;5.67;5.67;;;;;15.13;54.58;101493.34;5032031;28;9325;-66
2022/06/01 11:25:26;;;;;;;;;3.00;2.00;;;;;15.06;54.85;101496.03;5030609;28;9436;-67
2022/06/01 11:28:02;;;;;;;;;5.00;5.00;;;;;15.16;55.18;101501.06;5032569;28;9173;-66
2022/06/01 11:30:46;;;;;;;;;5.67;3.00;;;;;15.22;54.78;101497.50;5033731;28;9299;-66
2022/06/01 11:33:19;;;;;;;;;3.00;3.00;;;;;15.32;54.92;101494.41;5032664;28;9350;-66
2022/06/01 11:35:54;;;;;;;;;4.00;4.00;;;;;15.43;53.89;101491.03;5035900;28;9172;-66
2022/06/01 11:38:32;;;;;;;;;3.00;3.00;;;;;15.40;53.44;101498.78;5018806;28;9244;-63
2022/06/01 11:41:29;;;;;;;;;3.00;3.00;;;;;15.28;54.14;101504.81;5031941;28;9308;-66
2022/06/01 11:44:04;;;;;;;;;3.00;3.00;;;;;15.23;54.71;101499.19;5031408;28;9284;-65
2022/06/01 11:46:42;;;;;;;;;5.00;5.00;;;;;15.19;55.08;101499.81;5032155;28;9369;-66
2022/06/01 11:49:11;;;;;;;;;3.50;3.50;;;;;15.15;54.53;101507.53;5032074;28;9374;-64
2022/06/01 11:51:38;;;;;;;;;3.00;2.67;;;;;15.14;54.88;101507.72;5031121;28;9449;-64
2022/06/01 11:54:10;;;;;;;;;5.00;5.00;;;;;15.14;55.49;101514.00;5032336;28;9308;-66
2022/06/01 11:56:36;;;;;;;;;2.00;2.00;;;;;15.14;55.05;101514.00;5031202;28;9413;-66
2022/06/01 11:59:15;;;;;;;;;2.33;2.00;;;;;15.14;55.80;101518.59;5030817;28;9385;-65
2022/06/01 12:01:43;;;;;;;;;2.00;2.00;;;;;15.13;55.15;101512.31;5031829;28;9312;-66
2022/06/01 12:04:22;;;;;;;;;2.00;2.00;;;;;15.11;54.75;101513.56;5031485;28;9410;-66
2022/06/01 12:07:18;;;;;;;;;4.00;4.00;;;;;15.28;54.69;101509.41;5031754;28;9370;-66
2022/06/01 12:09:59;;;;;;;;;4.67;4.67;;;;;15.50;54.58;101518.16;5026489;28;10020;-66
2022/06/01 12:12:55;;;;;;;;;5.00;5.00;;;;;15.65;53.52;101516.09;5031478;28;9297;-66
2022/06/01 12:15:29;;;;;;;;;4.33;2.00;;;;;15.92;53.79;101519.59;5031473;28;9406;-66
2022/06/01 12:18:11;;;;;;;;;4.33;4.33;;;;;15.94;52.79;101524.81;5031560;28;9078;-66